Terminal Aerodrome Forecast
Issued by NWS Rapid City, SD

Home | Current Version | Previous Version | Text Only | Print | Product List | Glossary Off
Versions: 1 2 3 4 5 6 7 8 9 10 11 12 13 14 15 16 17 18 19 20 21 22 23 24 25 26 27 28 29 30 31 32

000
FTUS43 KUNR 300800 AAA
TAFRAP
TAF AMD
KRAP 300821Z 3008/0106 36013KT P6SM -RA BKN015
      TEMPO 3008/3011 4SM RA BR BKN008
     FM301100 34024G35KT 3SM -RA OVC015
     FM301800 33025G35KT P6SM -SHRA BKN040
     FM302300 33017KT P6SM BKN060=

USA.gov is the U.S. government's official web portal to all federal, state and local government web resources and services.